TAF and METAR

METAR for Brest Airport

UMBB 181300Z 04003MPS CAVOK 19/00 Q1029 R11/CLRD// NOSIG
Report created 18. apr 15:00
wind 6 knots from NE (040°) Clear sky Temperature 19° with dewpoint at 0° (Humidity 27.85%) Pressure 1029 hPa

TAF for Brest Airport

TAF UMBB 181105Z 1812/1821 03005MPS 9999 SCT020
Report created 18. apr 13:05

between 18. apr 14:00 - 18. apr 23:00

wind 10 knots from NNE (030°) visibility > 10km scattered clouds (~50% cover) at 2000 feet
Brest Airport in Belarus at 143m

Latest 5 airports